createdAt,value
2023-02-11T00:01:12.621Z,-3.08
2023-02-11T00:03:40.018Z,-3.12
2023-02-11T00:06:09.700Z,-3.15
2023-02-11T00:08:37.331Z,-3.16
2023-02-11T00:11:05.095Z,-3.18
2023-02-11T00:13:32.182Z,-3.21
2023-02-11T00:15:59.553Z,-3.23
2023-02-11T00:18:26.740Z,-3.25
2023-02-11T00:20:53.900Z,-3.31
2023-02-11T00:23:21.047Z,-3.34
2023-02-11T00:25:48.340Z,-3.35
2023-02-11T00:28:15.669Z,-3.28
2023-02-11T00:30:43.135Z,-3.22
2023-02-11T00:33:10.419Z,-3.19
2023-02-11T00:35:38.889Z,-3.16
2023-02-11T00:38:08.467Z,-3.12
2023-02-11T00:40:35.603Z,-3.13
2023-02-11T00:43:04.346Z,-3.10
2023-02-11T00:45:31.496Z,-3.13
2023-02-11T00:47:58.765Z,-3.10
2023-02-11T00:50:28.605Z,-3.08
2023-02-11T00:52:56.272Z,-3.09
2023-02-11T00:55:23.605Z,-3.07
2023-02-11T00:57:50.903Z,-3.07
2023-02-11T01:00:18.306Z,-3.08
2023-02-11T01:02:45.756Z,-3.08
2023-02-11T01:05:13.028Z,-3.11
2023-02-11T01:07:40.366Z,-3.13
2023-02-11T01:10:07.636Z,-3.16
2023-02-11T01:12:36.491Z,-3.17
2023-02-11T01:15:05.079Z,-3.18
2023-02-11T01:17:34.017Z,-3.21
2023-02-11T01:20:05.212Z,-3.21
2023-02-11T01:22:32.542Z,-3.25
2023-02-11T01:24:59.727Z,-3.27
2023-02-11T01:27:26.922Z,-3.32
2023-02-11T01:29:54.030Z,-3.33
2023-02-11T01:32:21.309Z,-3.35
2023-02-11T01:34:48.513Z,-3.35
2023-02-11T01:37:15.756Z,-3.36
2023-02-11T01:39:42.876Z,-3.34
2023-02-11T01:42:16.566Z,-3.35
2023-02-11T01:44:43.800Z,-3.37
2023-02-11T01:47:11.414Z,-3.39
2023-02-11T01:49:47.983Z,-3.38
2023-02-11T01:52:20.445Z,-3.40
2023-02-11T01:55:11.986Z,-3.41
2023-02-11T01:57:42.820Z,-3.45
2023-02-11T02:00:31.121Z,-3.47
2023-02-11T02:02:58.385Z,-3.48
2023-02-11T02:05:25.686Z,-3.53
2023-02-11T02:07:59.783Z,-3.50
2023-02-11T02:10:29.091Z,-3.47
2023-02-11T02:12:56.612Z,-3.50
2023-02-11T02:15:35.129Z,-3.50
2023-02-11T02:18:17.968Z,-3.46
2023-02-11T02:21:18.139Z,-3.40
2023-02-11T02:24:09.491Z,-3.36
2023-02-11T02:27:07.106Z,-3.35
2023-02-11T02:29:34.408Z,-3.34
2023-02-11T02:32:32.377Z,-3.34
2023-02-11T02:35:16.385Z,-3.31
2023-02-11T02:37:56.102Z,-3.25
2023-02-11T02:40:32.904Z,-3.22
2023-02-11T02:43:02.533Z,-3.24
2023-02-11T02:45:29.659Z,-3.28
2023-02-11T02:47:57.191Z,-3.36
2023-02-11T02:50:30.507Z,-3.42
2023-02-11T02:53:09.290Z,-3.45
2023-02-11T02:55:42.120Z,-3.51
2023-02-11T02:58:34.348Z,-3.52
2023-02-11T03:01:21.584Z,-3.50
2023-02-11T03:03:54.026Z,-3.56
2023-02-11T03:06:31.339Z,-3.58
2023-02-11T03:09:12.233Z,-3.59
2023-02-11T03:11:40.732Z,-3.58
2023-02-11T03:14:11.848Z,-3.54
2023-02-11T03:16:40.014Z,-3.56
2023-02-11T03:19:23.177Z,-3.55
2023-02-11T03:21:53.851Z,-3.53
2023-02-11T03:24:29.022Z,-3.43
2023-02-11T03:27:05.618Z,-3.37
2023-02-11T03:29:54.942Z,-3.32
2023-02-11T03:32:29.810Z,-3.31
2023-02-11T03:35:12.163Z,-3.31
2023-02-11T03:38:05.918Z,-3.26
2023-02-11T03:40:37.056Z,-3.27
2023-02-11T03:43:20.214Z,-3.23
2023-02-11T03:45:51.557Z,-3.23
2023-02-11T03:48:32.500Z,-3.23
2023-02-11T03:51:05.772Z,-3.20
2023-02-11T03:53:33.549Z,-3.21
2023-02-11T03:56:05.558Z,-3.22
2023-02-11T03:58:32.608Z,-3.20
2023-02-11T04:00:59.862Z,-3.22
2023-02-11T04:03:27.073Z,-3.25
2023-02-11T04:05:54.589Z,-3.26
2023-02-11T04:08:21.717Z,-3.25
2023-02-11T04:10:48.865Z,-3.26
2023-02-11T04:13:16.069Z,-3.27
2023-02-11T04:15:43.186Z,-3.26
2023-02-11T04:18:10.349Z,-3.23
2023-02-11T04:20:37.502Z,-3.21
2023-02-11T04:23:05.360Z,-3.20
2023-02-11T04:25:32.452Z,-3.15
2023-02-11T04:27:59.724Z,-3.10
2023-02-11T04:30:26.946Z,-3.05
2023-02-11T04:32:54.944Z,-3.01
2023-02-11T04:35:22.088Z,-2.95
2023-02-11T04:37:49.250Z,-2.90
2023-02-11T04:40:16.615Z,-2.84
2023-02-11T04:42:43.752Z,-2.79
2023-02-11T04:45:10.865Z,-2.77
2023-02-11T04:47:38.298Z,-2.77
2023-02-11T04:50:05.871Z,-2.73
2023-02-11T04:52:33.059Z,-2.72
2023-02-11T04:55:00.213Z,-2.69
2023-02-11T04:57:27.432Z,-2.69
2023-02-11T04:59:54.568Z,-2.69
2023-02-11T05:02:21.851Z,-2.66
2023-02-11T05:04:48.990Z,-2.62
2023-02-11T05:07:16.133Z,-2.61
2023-02-11T05:09:43.293Z,-2.64
2023-02-11T05:12:10.531Z,-2.76
2023-02-11T05:14:37.809Z,-2.64
2023-02-11T05:17:04.908Z,-2.53
2023-02-11T05:19:32.345Z,-2.47
2023-02-11T05:22:03.008Z,-2.42
2023-02-11T05:24:34.423Z,-2.42
2023-02-11T05:27:02.264Z,-2.40
2023-02-11T05:29:29.858Z,-2.39
2023-02-11T05:31:58.610Z,-2.42
2023-02-11T05:34:25.743Z,-2.42
2023-02-11T05:36:52.937Z,-2.44
2023-02-11T05:39:20.152Z,-2.40
2023-02-11T05:41:47.319Z,-2.33
2023-02-11T05:44:14.541Z,-2.26
2023-02-11T05:46:41.709Z,-2.15
2023-02-11T05:49:09.018Z,-2.06
2023-02-11T05:51:36.153Z,-1.97
2023-02-11T05:54:03.997Z,-1.87
2023-02-11T05:56:31.228Z,-1.77
2023-02-11T05:59:00.199Z,-1.75
2023-02-11T06:01:27.453Z,-1.68
2023-02-11T06:03:55.320Z,-1.58
2023-02-11T06:06:22.577Z,-1.50
2023-02-11T06:08:49.769Z,-1.38
2023-02-11T06:11:17.759Z,-1.31
2023-02-11T06:13:45.030Z,-1.23
2023-02-11T06:16:12.289Z,-1.10
2023-02-11T06:18:39.582Z,-0.98
2023-02-11T06:21:08.857Z,-0.83
2023-02-11T06:23:36.505Z,-0.70
2023-02-11T06:26:09.789Z,-0.58
2023-02-11T06:28:40.003Z,-0.51
2023-02-11T06:31:10.061Z,-0.54
2023-02-11T06:33:37.919Z,-0.62
2023-02-11T06:36:12.440Z,-0.66
2023-02-11T06:38:39.612Z,-0.68
2023-02-11T06:41:06.731Z,-0.74
2023-02-11T06:43:33.940Z,-0.69
2023-02-11T06:46:01.110Z,-0.62
2023-02-11T06:48:28.568Z,-0.53
2023-02-11T06:50:55.613Z,-0.45
2023-02-11T06:53:22.850Z,-0.49
2023-02-11T06:55:50.464Z,-0.48
2023-02-11T06:58:17.905Z,-0.43
2023-02-11T07:00:44.970Z,-0.41
2023-02-11T07:03:12.213Z,-0.38
2023-02-11T07:05:43.561Z,-0.42
2023-02-11T07:08:10.928Z,-0.41
2023-02-11T07:10:38.031Z,-0.38
2023-02-11T07:13:05.238Z,-0.32
2023-02-11T07:15:32.445Z,-0.31
2023-02-11T07:17:59.960Z,-0.29
2023-02-11T07:20:27.291Z,-0.22
2023-02-11T07:22:54.528Z,-0.17
2023-02-11T07:25:21.819Z,-0.07
2023-02-11T07:27:50.510Z,0.03
2023-02-11T07:30:17.776Z,0.24
2023-02-11T07:32:44.985Z,0.42
2023-02-11T07:35:12.135Z,0.47
2023-02-11T07:37:39.273Z,0.34
2023-02-11T07:40:07.970Z,0.30
2023-02-11T07:42:35.890Z,0.26
2023-02-11T07:45:03.129Z,0.40
2023-02-11T07:47:30.228Z,0.57
2023-02-11T07:49:57.384Z,0.55
2023-02-11T07:52:24.507Z,0.65
2023-02-11T07:54:51.666Z,0.78
2023-02-11T07:57:18.830Z,1.01
2023-02-11T07:59:46.035Z,1.28
2023-02-11T08:02:13.286Z,1.54
2023-02-11T08:04:40.630Z,1.83
2023-02-11T08:07:07.816Z,2.01
2023-02-11T08:09:35.011Z,2.13
2023-02-11T08:12:02.419Z,2.09
2023-02-11T08:14:29.704Z,2.28
2023-02-11T08:16:56.883Z,2.51
2023-02-11T08:19:24.172Z,2.69
2023-02-11T08:21:51.478Z,2.93
2023-02-11T08:24:18.695Z,3.34
2023-02-11T08:26:46.039Z,3.68
2023-02-11T08:29:15.397Z,3.98
2023-02-11T08:31:45.285Z,4.25
2023-02-11T08:34:19.351Z,4.47
2023-02-11T08:36:48.362Z,4.66
2023-02-11T08:39:21.724Z,4.77
2023-02-11T08:41:52.014Z,4.85
2023-02-11T08:44:21.168Z,5.01
2023-02-11T08:46:49.772Z,5.12
2023-02-11T08:49:17.103Z,5.18
2023-02-11T08:51:45.687Z,4.54
2023-02-11T08:54:13.495Z,4.30
2023-02-11T08:56:40.753Z,4.41
2023-02-11T08:59:09.715Z,4.56
2023-02-11T09:01:37.117Z,4.84
2023-02-11T09:04:04.972Z,4.99
2023-02-11T09:06:32.413Z,4.66
2023-02-11T09:08:59.888Z,4.61
2023-02-11T09:11:35.921Z,4.93
2023-02-11T09:14:04.510Z,4.56
2023-02-11T09:16:34.580Z,4.70
2023-02-11T09:19:05.018Z,4.57
2023-02-11T09:21:32.355Z,4.49
2023-02-11T09:23:59.578Z,4.73
2023-02-11T09:26:30.044Z,4.90
2023-02-11T09:28:57.510Z,5.03
2023-02-11T09:31:27.143Z,5.33
2023-02-11T09:33:57.479Z,5.17
2023-02-11T09:36:27.269Z,4.95
2023-02-11T09:38:55.480Z,5.30
2023-02-11T09:41:44.224Z,5.71
2023-02-11T09:44:23.656Z,5.55
2023-02-11T09:46:57.467Z,6.17
2023-02-11T09:49:44.754Z,6.08
2023-02-11T09:53:05.284Z,6.67
2023-02-11T09:55:36.941Z,8.56
2023-02-11T09:58:12.039Z,9.03
2023-02-11T10:00:52.069Z,10.59
2023-02-11T10:03:48.591Z,12.43
2023-02-11T10:06:49.551Z,13.41
2023-02-11T10:09:25.689Z,12.46
2023-02-11T10:12:17.504Z,12.28
2023-02-11T10:15:23.092Z,12.54
2023-02-11T10:18:02.432Z,12.53
2023-02-11T10:20:35.458Z,12.41
2023-02-11T10:23:13.409Z,12.03
2023-02-11T10:25:45.557Z,11.52
2023-02-11T10:28:22.486Z,11.47
2023-02-11T10:31:00.554Z,11.38
2023-02-11T10:33:27.762Z,11.27
2023-02-11T10:35:54.979Z,11.02
2023-02-11T10:38:22.171Z,11.03
2023-02-11T10:40:49.788Z,11.08
2023-02-11T10:43:20.861Z,11.47
2023-02-11T10:45:51.232Z,11.72
2023-02-11T10:48:40.142Z,11.81
2023-02-11T10:51:29.753Z,12.10
2023-02-11T10:54:08.398Z,12.10
2023-02-11T10:56:38.350Z,11.93
2023-02-11T10:59:15.938Z,11.30
2023-02-11T11:01:51.279Z,10.76
2023-02-11T11:04:30.752Z,11.04
2023-02-11T11:07:28.720Z,11.07
2023-02-11T11:10:00.701Z,11.14
2023-02-11T11:12:48.150Z,11.01
2023-02-11T11:15:25.990Z,10.93
2023-02-11T11:18:23.487Z,10.95
2023-02-11T11:21:01.276Z,10.69
2023-02-11T11:23:30.855Z,10.68
2023-02-11T11:26:18.037Z,10.31
2023-02-11T11:29:08.822Z,10.52
2023-02-11T11:31:46.483Z,10.81
2023-02-11T11:34:27.904Z,11.07
2023-02-11T11:36:56.710Z,11.29
2023-02-11T11:39:34.475Z,11.40
2023-02-11T11:42:23.576Z,11.24
2023-02-11T11:45:01.248Z,11.37
2023-02-11T11:47:45.459Z,11.40
2023-02-11T11:50:40.289Z,11.12
2023-02-11T11:53:23.444Z,10.69
2023-02-11T11:56:01.103Z,10.53
2023-02-11T11:58:30.364Z,10.59
2023-02-11T12:01:18.804Z,10.64
2023-02-11T12:04:26.166Z,10.37
2023-02-11T12:07:03.856Z,10.41
2023-02-11T12:09:53.026Z,10.12
2023-02-11T12:12:34.685Z,10.09
2023-02-11T12:15:16.835Z,10.06
2023-02-11T12:17:54.993Z,10.19
2023-02-11T12:20:24.805Z,9.99
2023-02-11T12:23:19.945Z,9.67
2023-02-11T12:26:01.947Z,9.38
2023-02-11T12:28:41.877Z,9.79
2023-02-11T12:31:17.063Z,9.74
2023-02-11T12:34:12.185Z,10.03
2023-02-11T12:36:54.975Z,10.07
2023-02-11T12:39:28.102Z,10.16
2023-02-11T12:42:21.097Z,10.30
2023-02-11T12:45:06.511Z,10.40
2023-02-11T12:47:51.897Z,10.40
2023-02-11T12:50:40.608Z,10.17
2023-02-11T12:53:21.206Z,10.02
2023-02-11T12:55:52.878Z,9.76
2023-02-11T12:58:35.590Z,9.62
2023-02-11T13:01:20.558Z,9.49
2023-02-11T13:04:01.085Z,9.30
2023-02-11T13:06:45.338Z,9.09
2023-02-11T13:09:21.262Z,8.91
2023-02-11T13:11:56.289Z,8.72
2023-02-11T13:14:30.816Z,8.30
2023-02-11T13:16:58.853Z,8.11
2023-02-11T13:19:49.486Z,8.12
2023-02-11T13:22:35.143Z,7.93
2023-02-11T13:25:08.417Z,7.99
2023-02-11T13:27:59.099Z,8.00
2023-02-11T13:30:34.000Z,8.06
2023-02-11T13:33:01.231Z,8.15
2023-02-11T13:35:30.059Z,8.32
2023-02-11T13:38:17.899Z,8.45
2023-02-11T13:40:46.057Z,8.60
2023-02-11T13:43:25.782Z,8.72
2023-02-11T13:46:02.560Z,8.86
2023-02-11T13:48:31.389Z,8.98
2023-02-11T13:51:05.501Z,9.09
2023-02-11T13:53:47.310Z,9.20
2023-02-11T13:56:28.707Z,9.30
2023-02-11T13:58:55.910Z,9.43
2023-02-11T14:02:12.308Z,9.54
2023-02-11T14:05:22.759Z,9.62
2023-02-11T14:08:30.284Z,9.69
2023-02-11T14:11:08.795Z,9.78
2023-02-11T14:13:37.646Z,9.84
2023-02-11T14:16:36.465Z,9.82
2023-02-11T14:19:06.734Z,9.92
2023-02-11T14:21:42.034Z,9.94
2023-02-11T14:24:13.452Z,9.95
2023-02-11T14:27:02.329Z,9.96
2023-02-11T14:30:06.740Z,9.97
2023-02-11T14:32:49.832Z,10.00
2023-02-11T14:35:27.910Z,9.97
2023-02-11T14:38:02.790Z,9.93
2023-02-11T14:40:35.076Z,9.93
2023-02-11T14:43:15.696Z,9.95
2023-02-11T14:45:48.667Z,9.97
2023-02-11T14:48:18.510Z,9.95
2023-02-11T14:50:51.091Z,9.96
2023-02-11T14:53:25.935Z,9.97
2023-02-11T14:55:55.886Z,9.95
2023-02-11T14:58:28.526Z,9.94
2023-02-11T15:00:55.560Z,9.87
2023-02-11T15:03:28.273Z,9.84
2023-02-11T15:06:08.729Z,9.75
2023-02-11T15:08:38.628Z,9.68
2023-02-11T15:11:12.708Z,9.61
2023-02-11T15:13:44.771Z,9.62
2023-02-11T15:16:15.804Z,9.58
2023-02-11T15:18:45.682Z,9.54
2023-02-11T15:21:13.229Z,9.46
2023-02-11T15:23:42.245Z,9.32
2023-02-11T15:26:21.929Z,9.19
2023-02-11T15:28:52.274Z,8.97
2023-02-11T15:31:23.681Z,8.83
2023-02-11T15:33:51.724Z,8.77
2023-02-11T15:36:22.099Z,8.76
2023-02-11T15:39:20.223Z,8.77
2023-02-11T15:41:47.348Z,8.75
2023-02-11T15:44:33.198Z,8.73
2023-02-11T15:47:00.627Z,8.71
2023-02-11T15:49:27.767Z,8.66
2023-02-11T15:51:57.534Z,8.59
2023-02-11T15:54:28.001Z,8.52
2023-02-11T15:57:02.276Z,8.45
2023-02-11T15:59:38.340Z,8.37
2023-02-11T16:02:17.138Z,8.30
2023-02-11T16:04:53.287Z,8.22
2023-02-11T16:07:40.893Z,8.09
2023-02-11T16:10:25.454Z,7.95
2023-02-11T16:13:08.751Z,7.81
2023-02-11T16:15:39.918Z,7.71
2023-02-11T16:18:38.440Z,7.58
2023-02-11T16:21:15.568Z,7.51
2023-02-11T16:23:44.088Z,7.43
2023-02-11T16:26:22.405Z,7.35
2023-02-11T16:28:50.446Z,7.30
2023-02-11T16:31:17.941Z,7.24
2023-02-11T16:33:45.392Z,7.19
2023-02-11T16:36:14.728Z,7.13
2023-02-11T16:38:41.900Z,7.05
2023-02-11T16:41:12.974Z,6.98
2023-02-11T16:43:40.693Z,6.89
2023-02-11T16:46:09.628Z,6.81
2023-02-11T16:48:38.422Z,6.73
2023-02-11T16:51:08.551Z,6.64
2023-02-11T16:53:35.728Z,6.58
2023-02-11T16:56:02.853Z,6.52
2023-02-11T16:58:30.209Z,6.42
2023-02-11T17:00:57.852Z,6.31
2023-02-11T17:03:29.943Z,6.19
2023-02-11T17:05:57.501Z,6.09
2023-02-11T17:08:24.809Z,5.97
2023-02-11T17:10:52.188Z,5.89
2023-02-11T17:13:19.635Z,5.81
2023-02-11T17:15:46.726Z,5.78
2023-02-11T17:18:14.792Z,5.78
2023-02-11T17:20:42.140Z,5.76
2023-02-11T17:23:09.798Z,5.76
2023-02-11T17:25:37.633Z,5.76
2023-02-11T17:28:09.554Z,5.75
2023-02-11T17:30:36.693Z,5.74
2023-02-11T17:33:03.912Z,5.70
2023-02-11T17:35:30.964Z,5.71
2023-02-11T17:37:59.284Z,5.70
2023-02-11T17:40:26.843Z,5.62
2023-02-11T17:42:53.953Z,5.57
2023-02-11T17:45:22.366Z,5.51
2023-02-11T17:47:50.007Z,5.46
2023-02-11T17:50:17.436Z,5.41
2023-02-11T17:52:44.827Z,5.36
2023-02-11T17:55:12.044Z,5.31
2023-02-11T17:57:39.335Z,5.25
2023-02-11T18:00:08.069Z,5.21
2023-02-11T18:02:40.036Z,5.15
2023-02-11T18:05:07.444Z,5.09
2023-02-11T18:07:34.709Z,5.00
2023-02-11T18:10:02.030Z,4.97
2023-02-11T18:12:29.595Z,4.95
2023-02-11T18:14:58.161Z,4.98
2023-02-11T18:17:26.329Z,4.99
2023-02-11T18:19:57.583Z,4.95
2023-02-11T18:22:25.086Z,4.96
2023-02-11T18:24:54.680Z,4.96
2023-02-11T18:27:23.165Z,4.94
2023-02-11T18:29:50.466Z,4.92
2023-02-11T18:32:17.668Z,4.96
2023-02-11T18:34:44.774Z,4.99
2023-02-11T18:37:13.673Z,5.00
2023-02-11T18:39:41.180Z,4.97
2023-02-11T18:42:08.721Z,4.90
2023-02-11T18:44:36.631Z,4.90
2023-02-11T18:47:04.815Z,4.80
2023-02-11T18:49:33.235Z,4.81
2023-02-11T18:52:00.392Z,4.84
2023-02-11T18:54:27.581Z,4.76
2023-02-11T18:56:54.692Z,4.77
2023-02-11T18:59:21.761Z,4.67
2023-02-11T19:01:49.024Z,4.64
2023-02-11T19:04:20.244Z,4.66
2023-02-11T19:06:49.785Z,4.68
2023-02-11T19:09:19.976Z,4.72
2023-02-11T19:11:47.554Z,4.76
2023-02-11T19:14:17.859Z,4.71
2023-02-11T19:16:50.781Z,4.70
2023-02-11T19:19:19.407Z,4.62
2023-02-11T19:21:47.836Z,4.53
2023-02-11T19:24:16.520Z,4.50
2023-02-11T19:26:43.680Z,4.50
2023-02-11T19:29:11.133Z,4.41
2023-02-11T19:31:39.229Z,4.43
2023-02-11T19:34:07.836Z,4.53
2023-02-11T19:36:35.279Z,4.65
2023-02-11T19:39:04.791Z,4.69
2023-02-11T19:41:33.880Z,4.68
2023-02-11T19:44:02.982Z,4.67
2023-02-11T19:46:33.878Z,4.69
2023-02-11T19:49:02.072Z,4.73
2023-02-11T19:51:30.439Z,4.72
2023-02-11T19:53:58.990Z,4.75
2023-02-11T19:56:28.871Z,4.77
2023-02-11T19:58:56.280Z,4.83
2023-02-11T20:01:25.058Z,4.81
2023-02-11T20:03:54.476Z,4.80
2023-02-11T20:06:28.333Z,4.86
2023-02-11T20:08:58.782Z,4.88
2023-02-11T20:11:28.368Z,4.92
2023-02-11T20:13:56.072Z,4.85
2023-02-11T20:16:36.834Z,4.88
2023-02-11T20:19:18.521Z,4.96
2023-02-11T20:21:47.857Z,4.96
2023-02-11T20:24:16.756Z,4.95
2023-02-11T20:26:45.658Z,5.00
2023-02-11T20:29:12.884Z,5.07
2023-02-11T20:31:40.144Z,5.15
2023-02-11T20:34:07.536Z,5.12
2023-02-11T20:36:37.798Z,5.13
2023-02-11T20:39:06.697Z,5.11
2023-02-11T20:41:36.735Z,5.11
2023-02-11T20:44:07.528Z,5.02
2023-02-11T20:46:38.556Z,5.03
2023-02-11T20:49:06.336Z,5.01
2023-02-11T20:51:35.316Z,4.98
2023-02-11T20:54:02.551Z,4.99
2023-02-11T20:56:32.677Z,5.05
2023-02-11T20:59:01.507Z,5.03
2023-02-11T21:01:49.950Z,5.04
2023-02-11T21:04:21.083Z,5.00
2023-02-11T21:06:52.533Z,5.02
2023-02-11T21:09:23.958Z,5.04
2023-02-11T21:11:52.884Z,4.98
2023-02-11T21:14:22.565Z,4.99
2023-02-11T21:16:50.650Z,5.04
2023-02-11T21:19:18.592Z,5.08
2023-02-11T21:21:45.885Z,5.07
2023-02-11T21:24:13.386Z,5.04
2023-02-11T21:26:40.525Z,4.99
2023-02-11T21:29:08.668Z,4.99
2023-02-11T21:31:37.131Z,4.99
2023-02-11T21:34:05.083Z,5.02
2023-02-11T21:36:32.290Z,4.99
2023-02-11T21:39:00.475Z,4.96
2023-02-11T21:41:27.982Z,5.02
2023-02-11T21:43:55.216Z,5.04
2023-02-11T21:46:23.103Z,5.09
2023-02-11T21:48:50.462Z,5.13
2023-02-11T21:51:23.724Z,5.16
2023-02-11T21:54:01.885Z,5.19
2023-02-11T21:56:31.206Z,5.20
2023-02-11T21:59:00.471Z,5.19
2023-02-11T22:01:35.612Z,5.25
2023-02-11T22:04:03.403Z,5.28
2023-02-11T22:06:33.532Z,5.30
2023-02-11T22:09:07.061Z,5.31
2023-02-11T22:11:34.265Z,5.30
2023-02-11T22:14:01.931Z,5.36
2023-02-11T22:16:30.383Z,5.39
2023-02-11T22:19:02.724Z,5.43
2023-02-11T22:21:30.301Z,5.45
2023-02-11T22:23:57.726Z,5.44
2023-02-11T22:26:26.622Z,5.45
2023-02-11T22:28:55.173Z,5.50
2023-02-11T22:31:28.292Z,5.57
2023-02-11T22:33:56.248Z,5.60
2023-02-11T22:36:38.583Z,5.64
2023-02-11T22:39:17.769Z,5.68
2023-02-11T22:41:46.508Z,5.70
2023-02-11T22:44:14.527Z,5.71
2023-02-11T22:46:41.710Z,5.71
2023-02-11T22:49:10.582Z,5.71
2023-02-11T22:51:39.194Z,5.75
2023-02-11T22:54:08.524Z,5.75
2023-02-11T22:56:35.959Z,5.74
2023-02-11T22:59:12.053Z,5.76
2023-02-11T23:01:39.586Z,5.73
2023-02-11T23:04:09.217Z,5.72
2023-02-11T23:06:36.468Z,5.72
2023-02-11T23:09:05.450Z,5.69
2023-02-11T23:11:33.066Z,5.68
2023-02-11T23:14:01.445Z,5.67
2023-02-11T23:16:34.297Z,5.65
2023-02-11T23:19:05.439Z,5.65
2023-02-11T23:21:34.755Z,5.65
2023-02-11T23:24:08.379Z,5.64
2023-02-11T23:26:41.488Z,5.64
2023-02-11T23:29:09.714Z,5.64
2023-02-11T23:31:40.629Z,5.63
2023-02-11T23:34:08.901Z,5.64
2023-02-11T23:36:36.233Z,5.64
2023-02-11T23:39:04.132Z,5.65
2023-02-11T23:41:31.279Z,5.66
2023-02-11T23:43:59.632Z,5.68
2023-02-11T23:46:27.856Z,5.67
2023-02-11T23:48:55.420Z,5.67
2023-02-11T23:51:23.959Z,5.66
2023-02-11T23:53:51.685Z,5.64
2023-02-11T23:56:21.770Z,5.65
2023-02-11T23:58:50.488Z,5.65
